sensor_id;sensor_type;location;lat;lon;timestamp;pressure;altitude;pressure_sealevel;temperature;humidity
53900;BME280;40509;32.858;-116.858;2023-04-28T00:02:01;97763.91;;;23.99;50.14
53900;BME280;40509;32.858;-116.858;2023-04-28T00:04:29;97760.28;;;24.00;50.01
53900;BME280;40509;32.858;-116.858;2023-04-28T00:06:56;97762.09;;;23.99;49.80
53900;BME280;40509;32.858;-116.858;2023-04-28T00:09:23;97762.94;;;24.00;49.76
53900;BME280;40509;32.858;-116.858;2023-04-28T00:11:51;97761.75;;;24.02;49.78
53900;BME280;40509;32.858;-116.858;2023-04-28T00:14:18;97766.88;;;24.04;49.71
53900;BME280;40509;32.858;-116.858;2023-04-28T00:16:45;97763.56;;;24.02;49.67
53900;BME280;40509;32.858;-116.858;2023-04-28T00:19:12;97763.91;;;23.99;49.72
53900;BME280;40509;32.858;-116.858;2023-04-28T00:21:40;97763.91;;;23.99;50.06
53900;BME280;40509;32.858;-116.858;2023-04-28T00:24:07;97765.72;;;23.98;49.86
53900;BME280;40509;32.858;-116.858;2023-04-28T00:26:34;97764.72;;;23.99;50.20
53900;BME280;40509;32.858;-116.858;2023-04-28T00:29:02;97769.16;;;24.07;49.95
53900;BME280;40509;32.858;-116.858;2023-04-28T00:31:29;97768.78;;;24.10;49.86
53900;BME280;40509;32.858;-116.858;2023-04-28T00:33:57;97758.28;;;24.02;49.80
53900;BME280;40509;32.858;-116.858;2023-04-28T00:36:24;97764.22;;;24.04;49.88
53900;BME280;40509;32.858;-116.858;2023-04-28T00:38:53;97757.94;;;24.05;49.97
53900;BME280;40509;32.858;-116.858;2023-04-28T00:41:20;97759.94;;;24.03;50.45
53900;BME280;40509;32.858;-116.858;2023-04-28T00:43:48;97764.47;;;24.26;49.86
53900;BME280;40509;32.858;-116.858;2023-04-28T00:46:26;97768.34;;;24.38;47.91
53900;BME280;40509;32.858;-116.858;2023-04-28T00:48:55;97765.81;;;24.21;45.92
53900;BME280;40509;32.858;-116.858;2023-04-28T00:51:22;97766.75;;;24.29;44.99
53900;BME280;40509;32.858;-116.858;2023-04-28T00:53:50;97764.47;;;24.26;45.19
53900;BME280;40509;32.858;-116.858;2023-04-28T00:56:18;97766.97;;;24.19;44.35
53900;BME280;40509;32.858;-116.858;2023-04-28T00:58:45;97771.72;;;24.23;44.89
53900;BME280;40509;32.858;-116.858;2023-04-28T01:01:13;97773.53;;;24.23;45.13
53900;BME280;40509;32.858;-116.858;2023-04-28T01:03:40;97772.69;;;24.22;44.13
53900;BME280;40509;32.858;-116.858;2023-04-28T01:06:09;97770.06;;;24.22;44.53
53900;BME280;40509;32.858;-116.858;2023-04-28T01:08:38;97781.63;;;24.13;44.80
53900;BME280;40509;32.858;-116.858;2023-04-28T01:11:09;97778.03;;;24.06;45.12
53900;BME280;40509;32.858;-116.858;2023-04-28T01:14:05;97785.00;;;23.99;45.15
53900;BME280;40509;32.858;-116.858;2023-04-28T01:16:36;97787.47;;;24.00;45.26
53900;BME280;40509;32.858;-116.858;2023-04-28T01:19:16;97784.06;;;23.92;45.43
53900;BME280;40509;32.858;-116.858;2023-04-28T01:21:48;97775.63;;;23.96;45.53
53900;BME280;40509;32.858;-116.858;2023-04-28T01:24:20;97778.44;;;23.86;45.60
53900;BME280;40509;32.858;-116.858;2023-04-28T01:26:47;97780.06;;;23.79;45.38
53900;BME280;40509;32.858;-116.858;2023-04-28T01:29:15;97780.44;;;23.76;45.51
53900;BME280;40509;32.858;-116.858;2023-04-28T01:31:42;97771.88;;;23.74;45.32
53900;BME280;40509;32.858;-116.858;2023-04-28T01:34:09;97780.13;;;23.63;45.71
53900;BME280;40509;32.858;-116.858;2023-04-28T01:36:37;97775.53;;;23.65;45.68
53900;BME280;40509;32.858;-116.858;2023-04-28T01:39:04;97778.34;;;23.55;46.13
53900;BME280;40509;32.858;-116.858;2023-04-28T01:41:32;97783.13;;;23.51;46.15
53900;BME280;40509;32.858;-116.858;2023-04-28T01:44:04;97785.59;;;23.53;46.05
53900;BME280;40509;32.858;-116.858;2023-04-28T01:46:33;97776.88;;;23.52;46.05
53900;BME280;40509;32.858;-116.858;2023-04-28T01:49:01;97776.03;;;23.52;46.23
53900;BME280;40509;32.858;-116.858;2023-04-28T01:51:28;97771.09;;;23.49;45.89
53900;BME280;40509;32.858;-116.858;2023-04-28T01:53:57;97771.28;;;23.47;45.72
53900;BME280;40509;32.858;-116.858;2023-04-28T01:56:24;97777.19;;;23.49;46.07
53900;BME280;40509;32.858;-116.858;2023-04-28T01:58:54;97774.56;;;23.49;46.03
53900;BME280;40509;32.858;-116.858;2023-04-28T02:01:22;97777.03;;;23.51;45.39
53900;BME280;40509;32.858;-116.858;2023-04-28T02:03:50;97780.00;;;23.48;45.96
53900;BME280;40509;32.858;-116.858;2023-04-28T02:06:17;97783.78;;;23.45;45.97
53900;BME280;40509;32.858;-116.858;2023-04-28T02:08:44;97775.22;;;23.43;46.17
53900;BME280;40509;32.858;-116.858;2023-04-28T02:11:12;97774.41;;;23.43;46.51
53900;BME280;40509;32.858;-116.858;2023-04-28T02:13:40;97775.88;;;23.37;46.54
53900;BME280;40509;32.858;-116.858;2023-04-28T02:16:08;97778.19;;;23.32;46.27
53900;BME280;40509;32.858;-116.858;2023-04-28T02:18:35;97785.28;;;23.31;46.45
53900;BME280;40509;32.858;-116.858;2023-04-28T02:21:09;97794.69;;;23.26;46.30
53900;BME280;40509;32.858;-116.858;2023-04-28T02:23:38;97788.41;;;23.35;45.95
53900;BME280;40509;32.858;-116.858;2023-04-28T02:26:06;97795.00;;;23.22;46.08
53900;BME280;40509;32.858;-116.858;2023-04-28T02:28:33;97796.81;;;23.14;45.40
53900;BME280;40509;32.858;-116.858;2023-04-28T02:31:08;97802.41;;;23.27;45.68
53900;BME280;40509;32.858;-116.858;2023-04-28T02:33:36;97803.72;;;23.31;46.00
53900;BME280;40509;32.858;-116.858;2023-04-28T02:36:05;97790.72;;;23.38;44.90
53900;BME280;40509;32.858;-116.858;2023-04-28T02:38:32;97805.88;;;23.36;45.17
53900;BME280;40509;32.858;-116.858;2023-04-28T02:41:01;97802.41;;;23.27;45.09
53900;BME280;40509;32.858;-116.858;2023-04-28T02:43:31;97794.66;;;23.34;45.09
53900;BME280;40509;32.858;-116.858;2023-04-28T02:45:59;97792.38;;;23.39;45.80
53900;BME280;40509;32.858;-116.858;2023-04-28T02:48:26;97804.84;;;23.45;45.84
53900;BME280;40509;32.858;-116.858;2023-04-28T02:50:53;97803.22;;;23.44;45.85
53900;BME280;40509;32.858;-116.858;2023-04-28T02:53:21;97806.16;;;23.49;46.11
53900;BME280;40509;32.858;-116.858;2023-04-28T02:55:49;97803.19;;;23.61;45.71
53900;BME280;40509;32.858;-116.858;2023-04-28T02:58:17;97808.13;;;23.64;45.89
53900;BME280;40509;32.858;-116.858;2023-04-28T03:00:44;97809.09;;;23.63;46.35
53900;BME280;40509;32.858;-116.858;2023-04-28T03:03:12;97810.41;;;23.67;46.18
53900;BME280;40509;32.858;-116.858;2023-04-28T03:05:39;97819.16;;;23.76;45.82
53900;BME280;40509;32.858;-116.858;2023-04-28T03:08:06;97811.88;;;23.78;46.18
53900;BME280;40509;32.858;-116.858;2023-04-28T03:10:34;97818.28;;;23.83;45.92
53900;BME280;40509;32.858;-116.858;2023-04-28T03:13:02;97822.91;;;23.81;46.25
53900;BME280;40509;32.858;-116.858;2023-04-28T03:15:30;97825.56;;;23.81;46.36
53900;BME280;40509;32.858;-116.858;2023-04-28T03:17:57;97824.41;;;23.84;46.24
53900;BME280;40509;32.858;-116.858;2023-04-28T03:20:24;97825.38;;;23.83;46.56
53900;BME280;40509;32.858;-116.858;2023-04-28T03:22:52;97823.72;;;23.82;46.59
53900;BME280;40509;32.858;-116.858;2023-04-28T03:25:19;97823.56;;;23.83;46.63
53900;BME280;40509;32.858;-116.858;2023-04-28T03:27:50;97825.56;;;23.81;47.19
53900;BME280;40509;32.858;-116.858;2023-04-28T03:30:17;97829.00;;;23.82;47.41
53900;BME280;40509;32.858;-116.858;2023-04-28T03:32:46;97826.53;;;23.80;47.33
53900;BME280;40509;32.858;-116.858;2023-04-28T03:35:14;97831.63;;;23.82;47.33
53900;BME280;40509;32.858;-116.858;2023-04-28T03:37:42;97835.28;;;23.81;47.63
53900;BME280;40509;32.858;-116.858;2023-04-28T03:40:10;97839.53;;;23.82;47.58
53900;BME280;40509;32.858;-116.858;2023-04-28T03:43:11;97836.28;;;23.80;47.86
53900;BME280;40509;32.858;-116.858;2023-04-28T03:45:45;97843.34;;;23.79;48.23
53900;BME280;40509;32.858;-116.858;2023-04-28T03:48:12;97844.66;;;23.83;47.90
53900;BME280;40509;32.858;-116.858;2023-04-28T03:50:40;97845.66;;;23.82;48.05
53900;BME280;40509;32.858;-116.858;2023-04-28T03:53:08;97854.56;;;23.81;48.65
53900;BME280;40509;32.858;-116.858;2023-04-28T03:55:35;97860.00;;;23.80;48.77
53900;BME280;40509;32.858;-116.858;2023-04-28T03:58:03;97851.75;;;23.74;48.63
53900;BME280;40509;32.858;-116.858;2023-04-28T04:00:30;97858.34;;;23.70;49.00
53900;BME280;40509;32.858;-116.858;2023-04-28T04:02:57;97867.56;;;23.74;48.59
53900;BME280;40509;32.858;-116.858;2023-04-28T04:05:24;97856.50;;;23.79;48.52
53900;BME280;40509;32.858;-116.858;2023-04-28T04:07:52;97865.09;;;23.73;49.07
53900;BME280;40509;32.858;-116.858;2023-04-28T04:10:19;97861.97;;;23.69;48.84
53900;BME280;40509;32.858;-116.858;2023-04-28T04:12:48;97863.28;;;23.65;49.36
53900;BME280;40509;32.858;-116.858;2023-04-28T04:15:15;97869.41;;;23.66;49.54
53900;BME280;40509;32.858;-116.858;2023-04-28T04:17:44;97869.72;;;23.63;49.27
53900;BME280;40509;32.858;-116.858;2023-04-28T04:20:11;97872.34;;;23.63;49.50
53900;BME280;40509;32.858;-116.858;2023-04-28T04:22:38;97874.81;;;23.64;49.58
53900;BME280;40509;32.858;-116.858;2023-04-28T04:25:06;97873.19;;;23.63;49.30
53900;BME280;40509;32.858;-116.858;2023-04-28T04:27:34;97870.72;;;23.62;49.71
53900;BME280;40509;32.858;-116.858;2023-04-28T04:30:02;97883.75;;;23.63;49.27
53900;BME280;40509;32.858;-116.858;2023-04-28T04:32:29;97870.88;;;23.60;49.73
53900;BME280;40509;32.858;-116.858;2023-04-28T04:34:56;97878.63;;;23.62;49.28
53900;BME280;40509;32.858;-116.858;2023-04-28T04:37:25;97882.56;;;23.57;49.86
53900;BME280;40509;32.858;-116.858;2023-04-28T04:40:03;97883.56;;;23.56;49.42
53900;BME280;40509;32.858;-116.858;2023-04-28T04:42:36;97879.94;;;23.57;49.41
53900;BME280;40509;32.858;-116.858;2023-04-28T04:45:09;97880.94;;;23.56;49.86
53900;BME280;40509;32.858;-116.858;2023-04-28T04:47:38;97882.72;;;23.56;49.99
53900;BME280;40509;32.858;-116.858;2023-04-28T04:50:06;97882.72;;;23.56;49.45
53900;BME280;40509;32.858;-116.858;2023-04-28T04:52:34;97878.31;;;23.56;49.59
53900;BME280;40509;32.858;-116.858;2023-04-28T04:55:02;97883.75;;;23.55;49.47
53900;BME280;40509;32.858;-116.858;2023-04-28T04:57:30;97880.94;;;23.56;49.42
53900;BME280;40509;32.858;-116.858;2023-04-28T05:00:20;97873.19;;;23.55;49.60
53900;BME280;40509;32.858;-116.858;2023-04-28T05:02:48;97876.47;;;23.57;49.71
53900;BME280;40509;32.858;-116.858;2023-04-28T05:05:17;97876.66;;;23.55;49.47
53900;BME280;40509;32.858;-116.858;2023-04-28T05:07:45;97874.00;;;23.55;49.80
53900;BME280;40509;32.858;-116.858;2023-04-28T05:10:13;97873.66;;;23.67;49.39
53900;BME280;40509;32.858;-116.858;2023-04-28T05:12:41;97882.25;;;23.69;49.07
53900;BME280;40509;32.858;-116.858;2023-04-28T05:15:10;97874.34;;;23.69;49.16
53900;BME280;40509;32.858;-116.858;2023-04-28T05:17:45;97870.56;;;23.63;49.07
53900;BME280;40509;32.858;-116.858;2023-04-28T05:20:14;97872.69;;;23.68;49.25
53900;BME280;40509;32.858;-116.858;2023-04-28T05:22:41;97871.88;;;23.67;49.06
53900;BME280;40509;32.858;-116.858;2023-04-28T05:25:09;97877.44;;;23.64;48.96
53900;BME280;40509;32.858;-116.858;2023-04-28T05:27:36;97876.97;;;23.61;49.58
53900;BME280;40509;32.858;-116.858;2023-04-28T05:30:09;97872.34;;;23.63;49.30
53900;BME280;40509;32.858;-116.858;2023-04-28T05:32:36;97875.50;;;23.58;49.46
53900;BME280;40509;32.858;-116.858;2023-04-28T05:35:05;97876.81;;;23.62;49.46
53900;BME280;40509;32.858;-116.858;2023-04-28T05:37:32;97859.53;;;23.60;49.42
53900;BME280;40509;32.858;-116.858;2023-04-28T05:40:00;97869.06;;;23.61;49.06
53900;BME280;40509;32.858;-116.858;2023-04-28T05:42:27;97876.13;;;23.60;49.45
53900;BME280;40509;32.858;-116.858;2023-04-28T05:44:55;97877.63;;;23.54;49.46
53900;BME280;40509;32.858;-116.858;2023-04-28T05:47:22;97871.38;;;23.55;49.60
53900;BME280;40509;32.858;-116.858;2023-04-28T05:49:50;97866.75;;;23.57;49.00
53900;BME280;40509;32.858;-116.858;2023-04-28T05:52:18;97865.78;;;23.50;49.51
53900;BME280;40509;32.858;-116.858;2023-04-28T05:54:45;97868.75;;;23.55;49.24
53900;BME280;40509;32.858;-116.858;2023-04-28T05:57:13;97869.09;;;23.52;49.17
53900;BME280;40509;32.858;-116.858;2023-04-28T05:59:44;97871.38;;;23.47;49.64
53900;BME280;40509;32.858;-116.858;2023-04-28T06:02:13;97879.94;;;23.41;49.77
53900;BME280;40509;32.858;-116.858;2023-04-28T06:04:42;97874.34;;;23.44;49.36
53900;BME280;40509;32.858;-116.858;2023-04-28T06:07:10;97867.91;;;23.38;49.84
53900;BME280;40509;32.858;-116.858;2023-04-28T06:09:38;97880.59;;;23.35;49.95
53900;BME280;40509;32.858;-116.858;2023-04-28T06:12:06;97878.28;;;23.32;49.73
53900;BME280;40509;32.858;-116.858;2023-04-28T06:14:34;97875.00;;;23.30;49.66
53900;BME280;40509;32.858;-116.858;2023-04-28T06:17:03;97877.47;;;23.31;49.99
53900;BME280;40509;32.858;-116.858;2023-04-28T06:19:31;97871.72;;;23.44;49.32
53900;BME280;40509;32.858;-116.858;2023-04-28T06:21:58;97870.25;;;23.50;48.99
53900;BME280;40509;32.858;-116.858;2023-04-28T06:24:26;97867.44;;;23.51;49.18
53900;BME280;40509;32.858;-116.858;2023-04-28T06:26:55;97863.31;;;23.49;48.91
53900;BME280;40509;32.858;-116.858;2023-04-28T06:29:23;97857.53;;;23.45;48.93
53900;BME280;40509;32.858;-116.858;2023-04-28T06:31:52;97862.81;;;23.45;49.35
53900;BME280;40509;32.858;-116.858;2023-04-28T06:34:24;97861.19;;;23.44;49.48
53900;BME280;40509;32.858;-116.858;2023-04-28T06:37:00;97866.28;;;23.37;49.19
53900;BME280;40509;32.858;-116.858;2023-04-28T06:39:28;97859.88;;;23.40;49.36
53900;BME280;40509;32.858;-116.858;2023-04-28T06:41:55;97871.56;;;23.37;49.16
53900;BME280;40509;32.858;-116.858;2023-04-28T06:44:25;97860.84;;;23.39;49.10
53900;BME280;40509;32.858;-116.858;2023-04-28T06:46:53;97860.50;;;23.34;49.43
53900;BME280;40509;32.858;-116.858;2023-04-28T06:49:20;97869.41;;;23.33;49.60
53900;BME280;40509;32.858;-116.858;2023-04-28T06:51:47;97875.81;;;23.30;49.68
53900;BME280;40509;32.858;-116.858;2023-04-28T06:54:15;97869.72;;;23.30;49.48
53900;BME280;40509;32.858;-116.858;2023-04-28T06:56:43;97873.34;;;23.29;49.60
53900;BME280;40509;32.858;-116.858;2023-04-28T06:59:11;97866.44;;;23.28;49.60
53900;BME280;40509;32.858;-116.858;2023-04-28T07:01:38;97869.41;;;23.24;49.63
53900;BME280;40509;32.858;-116.858;2023-04-28T07:04:05;97869.56;;;23.23;49.60
53900;BME280;40509;32.858;-116.858;2023-04-28T07:06:32;97871.22;;;23.24;49.55
53900;BME280;40509;32.858;-116.858;2023-04-28T07:08:59;97872.38;;;23.21;49.75
53900;BME280;40509;32.858;-116.858;2023-04-28T07:11:27;97862.97;;;23.19;49.66
53900;BME280;40509;32.858;-116.858;2023-04-28T07:13:55;97878.94;;;23.17;49.84
53900;BME280;40509;32.858;-116.858;2023-04-28T07:16:22;97866.41;;;23.19;49.68
53900;BME280;40509;32.858;-116.858;2023-04-28T07:18:49;97865.78;;;23.17;49.78
53900;BME280;40509;32.858;-116.858;2023-04-28T07:21:17;97873.63;;;23.09;49.65
53900;BME280;40509;32.858;-116.858;2023-04-28T07:23:44;97867.44;;;23.18;49.76
53900;BME280;40509;32.858;-116.858;2023-04-28T07:26:11;97865.06;;;23.07;49.60
53900;BME280;40509;32.858;-116.858;2023-04-28T07:28:43;97865.91;;;23.07;49.63
53900;BME280;40509;32.858;-116.858;2023-04-28T07:31:10;97868.22;;;23.11;49.48
53900;BME280;40509;32.858;-116.858;2023-04-28T07:33:37;97847.78;;;23.04;49.73
53900;BME280;40509;32.858;-116.858;2023-04-28T07:36:05;97861.78;;;23.05;49.91
53900;BME280;40509;32.858;-116.858;2023-04-28T07:38:35;97860.13;;;23.04;49.79
53900;BME280;40509;32.858;-116.858;2023-04-28T07:41:03;97857.16;;;22.99;50.04
53900;BME280;40509;32.858;-116.858;2023-04-28T07:43:30;97852.22;;;22.96;49.70
53900;BME280;40509;32.858;-116.858;2023-04-28T07:45:57;97850.56;;;22.95;49.67
53900;BME280;40509;32.858;-116.858;2023-04-28T07:48:25;97848.28;;;23.00;49.60
53900;BME280;40509;32.858;-116.858;2023-04-28T07:50:52;97855.84;;;22.95;49.68
53900;BME280;40509;32.858;-116.858;2023-04-28T07:53:19;97840.72;;;22.97;49.57
53900;BME280;40509;32.858;-116.858;2023-04-28T07:55:47;97842.22;;;22.99;49.75
53900;BME280;40509;32.858;-116.858;2023-04-28T07:58:14;97852.56;;;22.93;49.56
53900;BME280;40509;32.858;-116.858;2023-04-28T08:00:41;97850.25;;;22.98;49.42
53900;BME280;40509;32.858;-116.858;2023-04-28T08:03:08;97845.31;;;22.95;49.73
53900;BME280;40509;32.858;-116.858;2023-04-28T08:05:37;97845.97;;;22.88;49.50
53900;BME280;40509;32.858;-116.858;2023-04-28T08:08:04;97850.06;;;22.91;49.83
53900;BME280;40509;32.858;-116.858;2023-04-28T08:10:32;97843.97;;;22.90;49.73
53900;BME280;40509;32.858;-116.858;2023-04-28T08:12:59;97850.06;;;22.91;49.53
53900;BME280;40509;32.858;-116.858;2023-04-28T08:15:27;97845.97;;;22.88;49.77
53900;BME280;40509;32.858;-116.858;2023-04-28T08:17:54;97844.31;;;22.87;49.63
53900;BME280;40509;32.858;-116.858;2023-04-28T08:20:21;97838.72;;;22.82;49.85
53900;BME280;40509;32.858;-116.858;2023-04-28T08:22:49;97837.72;;;22.83;49.89
53900;BME280;40509;32.858;-116.858;2023-04-28T08:25:16;97840.66;;;22.80;49.61
53900;BME280;40509;32.858;-116.858;2023-04-28T08:27:44;97838.72;;;22.82;49.42
53900;BME280;40509;32.858;-116.858;2023-04-28T08:30:11;97832.75;;;22.80;49.81
53900;BME280;40509;32.858;-116.858;2023-04-28T08:32:39;97832.28;;;22.77;49.89
53900;BME280;40509;32.858;-116.858;2023-04-28T08:35:06;97829.66;;;22.77;49.90
53900;BME280;40509;32.858;-116.858;2023-04-28T08:37:34;97825.69;;;22.72;49.95
53900;BME280;40509;32.858;-116.858;2023-04-28T08:40:02;97823.88;;;22.73;49.53
53900;BME280;40509;32.858;-116.858;2023-04-28T08:42:35;97822.72;;;22.67;49.82
53900;BME280;40509;32.858;-116.858;2023-04-28T08:45:04;97817.97;;;22.71;49.85
53900;BME280;40509;32.858;-116.858;2023-04-28T08:47:37;97817.63;;;22.66;49.78
53900;BME280;40509;32.858;-116.858;2023-04-28T08:50:06;97817.78;;;22.64;49.59
53900;BME280;40509;32.858;-116.858;2023-04-28T08:52:34;97816.66;;;22.67;49.65
53900;BME280;40509;32.858;-116.858;2023-04-28T08:55:10;97812.72;;;22.71;49.41
53900;BME280;40509;32.858;-116.858;2023-04-28T08:57:42;97809.56;;;22.67;49.54
53900;BME280;40509;32.858;-116.858;2023-04-28T09:00:10;97805.94;;;22.60;49.60
53900;BME280;40509;32.858;-116.858;2023-04-28T09:02:38;97808.09;;;22.65;49.83
53900;BME280;40509;32.858;-116.858;2023-04-28T09:05:11;97812.84;;;22.61;49.58
53900;BME280;40509;32.858;-116.858;2023-04-28T09:07:39;97800.16;;;22.56;49.59
53900;BME280;40509;32.858;-116.858;2023-04-28T09:10:23;97797.53;;;22.56;49.90
53900;BME280;40509;32.858;-116.858;2023-04-28T09:12:53;97797.19;;;22.51;49.90
53900;BME280;40509;32.858;-116.858;2023-04-28T09:15:37;97796.72;;;22.56;49.95
53900;BME280;40509;32.858;-116.858;2023-04-28T09:18:07;97787.50;;;22.52;49.89
53900;BME280;40509;32.858;-116.858;2023-04-28T09:20:35;97790.28;;;22.50;50.07
53900;BME280;40509;32.858;-116.858;2023-04-28T09:23:17;97791.59;;;22.46;50.02
53900;BME280;40509;32.858;-116.858;2023-04-28T09:26:02;97790.94;;;22.44;49.59
53900;BME280;40509;32.858;-116.858;2023-04-28T09:28:31;97788.13;;;22.46;49.57
53900;BME280;40509;32.858;-116.858;2023-04-28T09:30:58;97787.34;;;22.45;49.62
53900;BME280;40509;32.858;-116.858;2023-04-28T09:33:25;97777.78;;;22.36;49.68
53900;BME280;40509;32.858;-116.858;2023-04-28T09:35:53;97790.13;;;22.44;49.72
53900;BME280;40509;32.858;-116.858;2023-04-28T09:38:21;97787.63;;;22.42;49.52
53900;BME280;40509;32.858;-116.858;2023-04-28T09:40:57;97785.69;;;22.44;49.51
53900;BME280;40509;32.858;-116.858;2023-04-28T09:45:58;97780.41;;;22.44;49.48
53900;BME280;40509;32.858;-116.858;2023-04-28T09:51:02;97779.75;;;22.42;49.46
53900;BME280;40509;32.858;-116.858;2023-04-28T09:53:32;97782.69;;;22.39;49.61
53900;BME280;40509;32.858;-116.858;2023-04-28T09:56:02;97781.03;;;22.38;49.51
53900;BME280;40509;32.858;-116.858;2023-04-28T09:58:33;97785.50;;;22.37;49.61
53900;BME280;40509;32.858;-116.858;2023-04-28T10:01:01;97793.84;;;22.33;49.64
53900;BME280;40509;32.858;-116.858;2023-04-28T10:03:29;97788.28;;;22.36;49.49
53900;BME280;40509;32.858;-116.858;2023-04-28T10:05:58;97783.31;;;22.33;49.50
53900;BME280;40509;32.858;-116.858;2023-04-28T10:08:25;97789.09;;;22.36;49.49
53900;BME280;40509;32.858;-116.858;2023-04-28T10:10:54;97788.88;;;22.30;49.65
53900;BME280;40509;32.858;-116.858;2023-04-28T10:13:22;97791.34;;;22.31;49.60
53900;BME280;40509;32.858;-116.858;2023-04-28T10:15:50;97792.19;;;22.32;49.64
53900;BME280;40509;32.858;-116.858;2023-04-28T10:18:22;97789.84;;;22.29;49.42
53900;BME280;40509;32.858;-116.858;2023-04-28T10:20:56;97791.34;;;22.31;49.38
53900;BME280;40509;32.858;-116.858;2023-04-28T10:24:06;97794.28;;;22.20;49.35
53900;BME280;40509;32.858;-116.858;2023-04-28T10:27:07;97792.00;;;22.25;49.48
53900;BME280;40509;32.858;-116.858;2023-04-28T10:29:35;97778.00;;;22.24;49.36
53900;BME280;40509;32.858;-116.858;2023-04-28T10:32:23;97774.91;;;22.21;49.45
53900;BME280;40509;32.858;-116.858;2023-04-28T10:38:07;97768.47;;;22.15;49.60
53900;BME280;40509;32.858;-116.858;2023-04-28T10:40:39;97768.31;;;22.17;49.23
53900;BME280;40509;32.858;-116.858;2023-04-28T10:48:22;97760.41;;;22.09;49.41
53900;BME280;40509;32.858;-116.858;2023-04-28T10:56:16;97761.22;;;22.09;49.18
53900;BME280;40509;32.858;-116.858;2023-04-28T10:58:54;97765.34;;;22.12;49.33
53900;BME280;40509;32.858;-116.858;2023-04-28T11:03:58;97767.59;;;22.06;49.28
53900;BME280;40509;32.858;-116.858;2023-04-28T11:06:32;97763.03;;;22.09;49.31
53900;BME280;40509;32.858;-116.858;2023-04-28T11:17:03;97769.59;;;22.04;49.48
53900;BME280;40509;32.858;-116.858;2023-04-28T11:19:35;97771.69;;;22.01;49.17
53900;BME280;40509;32.858;-116.858;2023-04-28T11:22:05;97787.63;;;21.99;49.17
53900;BME280;40509;32.858;-116.858;2023-04-28T11:24:37;97785.16;;;21.98;49.44
53900;BME280;40509;32.858;-116.858;2023-04-28T11:27:05;97780.72;;;21.98;49.24
53900;BME280;40509;32.858;-116.858;2023-04-28T11:29:37;97779.06;;;21.97;49.19
53900;BME280;40509;32.858;-116.858;2023-04-28T11:32:05;97783.16;;;21.92;49.13
53900;BME280;40509;32.858;-116.858;2023-04-28T11:34:33;97774.28;;;21.93;49.29
53900;BME280;40509;32.858;-116.858;2023-04-28T11:37:01;97777.25;;;21.89;49.08
53900;BME280;40509;32.858;-116.858;2023-04-28T11:39:30;97779.22;;;21.96;49.28
53900;BME280;40509;32.858;-116.858;2023-04-28T11:42:04;97780.34;;;21.93;49.08
53900;BME280;40509;32.858;-116.858;2023-04-28T11:44:35;97783.81;;;21.94;49.17
53900;BME280;40509;32.858;-116.858;2023-04-28T11:47:03;97785.13;;;21.89;48.93
53900;BME280;40509;32.858;-116.858;2023-04-28T11:52:08;97784.44;;;21.87;49.00
53900;BME280;40509;32.858;-116.858;2023-04-28T11:54:36;97776.41;;;21.89;48.88
53900;BME280;40509;32.858;-116.858;2023-04-28T11:57:04;97777.50;;;21.78;49.16
53900;BME280;40509;32.858;-116.858;2023-04-28T11:59:34;97773.06;;;21.79;49.04
53900;BME280;40509;32.858;-116.858;2023-04-28T12:02:05;97776.53;;;21.79;48.84
53900;BME280;40509;32.858;-116.858;2023-04-28T12:04:34;97777.81;;;21.75;48.98
53900;BME280;40509;32.858;-116.858;2023-04-28T12:07:08;97769.44;;;21.80;48.99
53900;BME280;40509;32.858;-116.858;2023-04-28T12:09:37;97771.44;;;21.78;49.18
53900;BME280;40509;32.858;-116.858;2023-04-28T12:12:07;97767.47;;;21.73;49.01
53900;BME280;40509;32.858;-116.858;2023-04-28T12:14:57;97765.50;;;21.76;49.13
53900;BME280;40509;32.858;-116.858;2023-04-28T12:17:36;97771.44;;;21.78;49.06
53900;BME280;40509;32.858;-116.858;2023-04-28T12:20:06;97765.00;;;21.72;49.04
53900;BME280;40509;32.858;-116.858;2023-04-28T12:22:44;97767.47;;;21.73;49.21
53900;BME280;40509;32.858;-116.858;2023-04-28T12:25:16;97768.91;;;21.68;49.04
53900;BME280;40509;32.858;-116.858;2023-04-28T12:28:05;97777.44;;;21.70;49.08
53900;BME280;40509;32.858;-116.858;2023-04-28T12:30:35;97782.53;;;21.71;49.14
53900;BME280;40509;32.858;-116.858;2023-04-28T12:33:26;97795.78;;;21.62;49.14
53900;BME280;40509;32.858;-116.858;2023-04-28T12:35:57;97794.34;;;21.67;48.83
53900;BME280;40509;32.858;-116.858;2023-04-28T12:38:24;97796.31;;;21.65;48.80
53900;BME280;40509;32.858;-116.858;2023-04-28T12:40:52;97798.78;;;21.67;48.69
53900;BME280;40509;32.858;-116.858;2023-04-28T12:43:21;97799.88;;;21.56;48.90
53900;BME280;40509;32.858;-116.858;2023-04-28T12:45:50;97816.81;;;21.62;48.92
53900;BME280;40509;32.858;-116.858;2023-04-28T12:48:21;97814.88;;;21.64;48.79
53900;BME280;40509;32.858;-116.858;2023-04-28T12:50:50;97820.41;;;21.61;48.82
53900;BME280;40509;32.858;-116.858;2023-04-28T12:53:18;97824.84;;;21.60;48.51
53900;BME280;40509;32.858;-116.858;2023-04-28T12:55:45;97827.00;;;21.65;48.80
53900;BME280;40509;32.858;-116.858;2023-04-28T12:58:12;97827.63;;;21.59;48.73
53900;BME280;40509;32.858;-116.858;2023-04-28T13:00:39;97827.63;;;21.59;48.58
53900;BME280;40509;32.858;-116.858;2023-04-28T13:03:07;97830.41;;;21.57;48.65
53900;BME280;40509;32.858;-116.858;2023-04-28T13:05:34;97836.78;;;21.54;48.36
53900;BME280;40509;32.858;-116.858;2023-04-28T13:08:01;97843.69;;;21.55;48.65
53900;BME280;40509;32.858;-116.858;2023-04-28T13:10:30;97849.94;;;21.54;48.72
53900;BME280;40509;32.858;-116.858;2023-04-28T13:12:57;97852.84;;;21.51;48.57
53900;BME280;40509;32.858;-116.858;2023-04-28T13:15:24;97853.97;;;21.49;48.66